createdAt,value
2017-07-19T15:49:23.724Z,7.0
2017-07-19T15:50:25.598Z,7.7
2017-07-19T15:51:27.352Z,10.0
2017-07-19T15:52:29.173Z,5.9
2017-07-19T15:53:30.882Z,6.6
2017-07-19T15:54:32.721Z,6.2
2017-07-19T15:55:34.480Z,6.7
2017-07-19T15:56:36.322Z,6.7
2017-07-19T15:57:37.936Z,5.9
2017-07-19T15:58:39.609Z,6.5
2017-07-19T15:59:42.111Z,6.7
2017-07-19T16:00:43.796Z,6.6
2017-07-19T16:01:45.473Z,6.8
2017-07-19T16:02:47.151Z,6.8
2017-07-19T16:03:48.824Z,6.8
2017-07-19T16:04:50.609Z,6.4
2017-07-19T16:05:52.377Z,6.6
2017-07-19T16:06:54.083Z,7.4
2017-07-19T16:07:56.109Z,6.9
2017-07-19T16:08:57.842Z,6.9
2017-07-19T16:09:59.548Z,7.3
2017-07-19T16:11:01.271Z,7.2
2017-07-19T16:12:02.899Z,6.7
2017-07-19T16:13:04.548Z,7.0
2017-07-19T16:14:06.519Z,7.8
2017-07-19T16:15:08.305Z,7.2
2017-07-19T16:16:10.941Z,7.5
2017-07-19T16:17:13.642Z,7.6
2017-07-19T16:18:16.647Z,8.1
2017-07-19T16:19:19.839Z,8.1
2017-07-19T16:20:22.794Z,8.3
2017-07-19T16:21:25.473Z,8.1
2017-07-19T16:22:28.502Z,8.6
2017-07-19T16:23:30.587Z,8.0
2017-07-19T16:24:33.311Z,7.6
2017-07-19T16:25:36.101Z,7.4
2017-07-19T16:26:39.098Z,7.0
2017-07-19T16:27:41.888Z,6.9
2017-07-19T16:28:45.554Z,7.3
2017-07-19T16:29:48.816Z,6.9
2017-07-19T16:30:51.506Z,6.5
2017-07-19T16:31:54.194Z,6.5
2017-07-19T16:32:57.354Z,6.5
2017-07-19T16:33:59.927Z,6.8
2017-07-19T16:35:02.620Z,6.7
2017-07-19T16:36:05.363Z,6.0
2017-07-19T16:37:08.375Z,6.3
2017-07-19T16:38:11.188Z,6.7
2017-07-19T16:39:14.729Z,6.7
2017-07-19T16:40:18.111Z,6.2
2017-07-19T16:41:20.963Z,6.4
2017-07-19T16:42:23.974Z,5.9
2017-07-19T16:43:27.303Z,6.0
2017-07-19T16:44:29.947Z,5.7
2017-07-19T16:45:33.199Z,4.6
2017-07-19T16:46:37.269Z,5.1
2017-07-19T16:49:57.473Z,5.1
2017-07-19T16:51:01.792Z,5.0
2017-07-19T16:52:06.074Z,4.9
2017-07-19T16:53:10.022Z,4.7
2017-07-19T16:54:15.567Z,4.5
2017-07-19T16:55:19.930Z,4.9
2017-07-19T16:56:24.277Z,4.3
2017-07-19T16:57:27.847Z,4.5
2017-07-19T18:50:15.395Z,4.6
2017-07-19T19:15:38.809Z,5.8
2017-07-19T19:16:41.639Z,4.8
2017-07-19T19:17:44.025Z,4.4
2017-07-19T19:18:46.742Z,4.2
2017-07-19T19:19:48.914Z,4.7
2017-07-19T19:20:51.933Z,4.4
2017-07-19T19:21:54.695Z,4.0
2017-07-19T19:22:57.680Z,4.1
2017-07-19T19:25:10.759Z,4.0
2017-07-19T19:28:34.050Z,4.7
2017-07-19T19:29:36.496Z,4.2
2017-07-19T19:30:38.942Z,4.1
2017-07-19T19:31:41.756Z,4.3
2017-07-19T19:32:45.223Z,4.3
2017-07-19T19:33:48.649Z,4.1
2017-07-19T19:34:51.915Z,4.2
2017-07-19T19:35:54.808Z,4.4
2017-07-19T19:36:58.804Z,4.7
2017-07-19T19:38:01.208Z,4.9
2017-07-19T19:39:03.666Z,4.8
2017-07-19T19:40:06.014Z,4.7
2017-07-19T19:41:08.514Z,4.5
2017-07-19T19:42:10.781Z,4.9
2017-07-19T19:43:13.224Z,4.3
2017-07-19T19:44:15.331Z,4.8
2017-07-19T19:45:20.014Z,4.7
2017-07-19T19:46:22.689Z,4.7
2017-07-19T19:47:25.232Z,4.3
2017-07-19T19:48:28.069Z,5.1
2017-07-19T19:49:30.931Z,4.7
2017-07-19T19:50:33.532Z,4.5
2017-07-19T19:51:37.105Z,5.2
2017-07-19T19:52:39.406Z,5.1
2017-07-19T19:53:42.790Z,4.9
2017-07-19T19:54:45.120Z,5.2
2017-07-19T19:55:47.273Z,4.6
2017-07-19T19:56:50.925Z,5.0
2017-07-19T19:57:53.276Z,5.0
2017-07-19T19:58:55.840Z,4.5
2017-07-19T19:59:58.189Z,4.9
2017-07-19T20:01:01.989Z,5.4
2017-07-19T20:02:06.738Z,5.5
2017-07-19T20:03:10.386Z,5.0
2017-07-19T20:04:14.456Z,4.9
2017-07-19T20:05:19.328Z,5.3
2017-07-19T20:06:25.248Z,5.0
2017-07-19T20:07:31.871Z,5.4
2017-07-19T20:08:37.604Z,5.2
2017-07-19T20:09:43.408Z,5.3
2017-07-19T20:10:48.296Z,5.5
2017-07-19T20:11:54.957Z,5.5
2017-07-19T20:13:01.122Z,5.1
2017-07-19T20:14:04.000Z,5.1
2017-07-19T20:15:07.384Z,5.8
2017-07-19T20:16:10.705Z,6.1
2017-07-19T20:17:13.319Z,6.0
2017-07-19T20:18:16.354Z,5.9
2017-07-19T20:19:24.927Z,5.8
